sensor_id;sensor_type;location;lat;lon;timestamp;P1;durP1;ratioP1;P2;durP2;ratioP2
19084;SDS011;9675;51.538;6.728;2023-08-06T00:02:26;3.00;;;1.33;;
19084;SDS011;9675;51.538;6.728;2023-08-06T00:04:53;2.40;;;1.60;;
19084;SDS011;9675;51.538;6.728;2023-08-06T00:07:20;1.87;;;1.47;;
19084;SDS011;9675;51.538;6.728;2023-08-06T00:09:47;2.77;;;1.63;;
19084;SDS011;9675;51.538;6.728;2023-08-06T00:12:14;2.80;;;1.10;;
19084;SDS011;9675;51.538;6.728;2023-08-06T00:14:42;2.07;;;1.60;;
19084;SDS011;9675;51.538;6.728;2023-08-06T00:17:10;3.73;;;1.87;;
19084;SDS011;9675;51.538;6.728;2023-08-06T00:19:37;6.20;;;1.50;;
19084;SDS011;9675;51.538;6.728;2023-08-06T00:22:04;4.70;;;1.50;;
19084;SDS011;9675;51.538;6.728;2023-08-06T00:24:31;3.53;;;1.60;;
19084;SDS011;9675;51.538;6.728;2023-08-06T00:26:58;1.73;;;1.37;;
19084;SDS011;9675;51.538;6.728;2023-08-06T00:29:25;1.50;;;1.30;;
19084;SDS011;9675;51.538;6.728;2023-08-06T00:31:53;1.97;;;1.10;;
19084;SDS011;9675;51.538;6.728;2023-08-06T00:34:21;2.53;;;1.40;;
19084;SDS011;9675;51.538;6.728;2023-08-06T00:36:48;1.60;;;1.33;;
19084;SDS011;9675;51.538;6.728;2023-08-06T00:39:15;3.90;;;1.60;;
19084;SDS011;9675;51.538;6.728;2023-08-06T00:41:41;2.00;;;1.43;;
19084;SDS011;9675;51.538;6.728;2023-08-06T00:44:08;2.90;;;1.53;;
19084;SDS011;9675;51.538;6.728;2023-08-06T00:46:35;5.20;;;1.60;;
19084;SDS011;9675;51.538;6.728;2023-08-06T00:49:04;1.70;;;1.50;;
19084;SDS011;9675;51.538;6.728;2023-08-06T00:51:32;1.93;;;1.27;;
19084;SDS011;9675;51.538;6.728;2023-08-06T00:54:00;2.20;;;1.50;;
19084;SDS011;9675;51.538;6.728;2023-08-06T00:56:28;3.50;;;1.63;;
19084;SDS011;9675;51.538;6.728;2023-08-06T00:58:55;4.10;;;1.43;;
19084;SDS011;9675;51.538;6.728;2023-08-06T01:01:22;3.23;;;1.43;;
19084;SDS011;9675;51.538;6.728;2023-08-06T01:03:50;3.20;;;1.57;;
19084;SDS011;9675;51.538;6.728;2023-08-06T01:06:19;2.97;;;1.40;;
19084;SDS011;9675;51.538;6.728;2023-08-06T01:09:06;2.00;;;1.00;;
19084;SDS011;9675;51.538;6.728;2023-08-06T01:11:54;3.20;;;1.53;;
19084;SDS011;9675;51.538;6.728;2023-08-06T01:14:37;2.47;;;1.70;;
19084;SDS011;9675;51.538;6.728;2023-08-06T01:17:27;1.70;;;1.20;;
19084;SDS011;9675;51.538;6.728;2023-08-06T01:19:56;2.03;;;1.27;;
19084;SDS011;9675;51.538;6.728;2023-08-06T01:22:25;1.93;;;1.20;;
19084;SDS011;9675;51.538;6.728;2023-08-06T01:24:52;1.87;;;1.30;;
19084;SDS011;9675;51.538;6.728;2023-08-06T01:27:22;1.87;;;1.57;;
19084;SDS011;9675;51.538;6.728;2023-08-06T01:29:57;2.27;;;1.50;;
19084;SDS011;9675;51.538;6.728;2023-08-06T01:32:32;3.90;;;1.33;;
19084;SDS011;9675;51.538;6.728;2023-08-06T01:35:05;2.57;;;1.67;;
19084;SDS011;9675;51.538;6.728;2023-08-06T01:37:36;1.40;;;1.20;;
19084;SDS011;9675;51.538;6.728;2023-08-06T01:40:05;2.60;;;1.70;;
19084;SDS011;9675;51.538;6.728;2023-08-06T01:42:35;1.70;;;1.20;;
19084;SDS011;9675;51.538;6.728;2023-08-06T01:45:03;2.20;;;1.73;;
19084;SDS011;9675;51.538;6.728;2023-08-06T01:47:31;2.97;;;1.70;;
19084;SDS011;9675;51.538;6.728;2023-08-06T01:49:58;2.70;;;1.70;;
19084;SDS011;9675;51.538;6.728;2023-08-06T01:52:25;2.70;;;1.60;;
19084;SDS011;9675;51.538;6.728;2023-08-06T01:54:53;4.53;;;1.80;;
19084;SDS011;9675;51.538;6.728;2023-08-06T01:57:21;2.77;;;1.47;;
19084;SDS011;9675;51.538;6.728;2023-08-06T01:59:48;3.80;;;1.60;;
19084;SDS011;9675;51.538;6.728;2023-08-06T02:02:15;3.87;;;2.00;;
19084;SDS011;9675;51.538;6.728;2023-08-06T02:04:42;4.77;;;1.27;;
19084;SDS011;9675;51.538;6.728;2023-08-06T02:07:09;4.43;;;1.80;;
19084;SDS011;9675;51.538;6.728;2023-08-06T02:09:36;4.80;;;2.20;;
19084;SDS011;9675;51.538;6.728;2023-08-06T02:12:05;2.77;;;1.30;;
19084;SDS011;9675;51.538;6.728;2023-08-06T02:14:33;3.07;;;1.67;;
19084;SDS011;9675;51.538;6.728;2023-08-06T02:17:00;2.80;;;1.90;;
19084;SDS011;9675;51.538;6.728;2023-08-06T02:19:27;2.90;;;1.50;;
19084;SDS011;9675;51.538;6.728;2023-08-06T02:21:54;2.07;;;1.40;;
19084;SDS011;9675;51.538;6.728;2023-08-06T02:24:21;1.70;;;1.40;;
19084;SDS011;9675;51.538;6.728;2023-08-06T02:26:48;1.80;;;1.27;;
19084;SDS011;9675;51.538;6.728;2023-08-06T02:29:17;3.27;;;1.57;;
19084;SDS011;9675;51.538;6.728;2023-08-06T02:31:44;1.60;;;1.30;;
19084;SDS011;9675;51.538;6.728;2023-08-06T02:34:11;1.63;;;1.23;;
19084;SDS011;9675;51.538;6.728;2023-08-06T02:36:39;4.03;;;1.77;;
19084;SDS011;9675;51.538;6.728;2023-08-06T02:39:06;2.50;;;1.20;;
19084;SDS011;9675;51.538;6.728;2023-08-06T02:41:33;2.47;;;1.33;;
19084;SDS011;9675;51.538;6.728;2023-08-06T02:44:00;4.97;;;1.70;;
19084;SDS011;9675;51.538;6.728;2023-08-06T02:46:29;2.50;;;1.60;;
19084;SDS011;9675;51.538;6.728;2023-08-06T02:48:56;2.07;;;1.37;;
19084;SDS011;9675;51.538;6.728;2023-08-06T02:51:23;1.27;;;1.17;;
19084;SDS011;9675;51.538;6.728;2023-08-06T02:53:50;2.73;;;1.50;;
19084;SDS011;9675;51.538;6.728;2023-08-06T02:56:17;1.83;;;1.50;;
19084;SDS011;9675;51.538;6.728;2023-08-06T02:58:44;2.00;;;1.50;;
19084;SDS011;9675;51.538;6.728;2023-08-06T03:01:11;2.20;;;1.03;;
19084;SDS011;9675;51.538;6.728;2023-08-06T03:03:39;2.87;;;1.43;;
19084;SDS011;9675;51.538;6.728;2023-08-06T03:06:06;3.30;;;1.30;;
19084;SDS011;9675;51.538;6.728;2023-08-06T03:08:33;1.90;;;1.47;;
19084;SDS011;9675;51.538;6.728;2023-08-06T03:11:00;2.70;;;1.20;;
19084;SDS011;9675;51.538;6.728;2023-08-06T03:13:27;3.90;;;1.40;;
19084;SDS011;9675;51.538;6.728;2023-08-06T03:15:54;2.30;;;1.47;;
19084;SDS011;9675;51.538;6.728;2023-08-06T03:18:23;2.10;;;1.40;;
19084;SDS011;9675;51.538;6.728;2023-08-06T03:20:52;2.40;;;1.30;;
19084;SDS011;9675;51.538;6.728;2023-08-06T03:23:19;3.60;;;1.63;;
19084;SDS011;9675;51.538;6.728;2023-08-06T03:25:46;2.70;;;1.47;;
19084;SDS011;9675;51.538;6.728;2023-08-06T03:28:13;1.30;;;1.20;;
19084;SDS011;9675;51.538;6.728;2023-08-06T03:30:40;2.00;;;1.10;;
19084;SDS011;9675;51.538;6.728;2023-08-06T03:33:08;2.30;;;1.70;;
19084;SDS011;9675;51.538;6.728;2023-08-06T03:35:35;5.20;;;1.60;;
19084;SDS011;9675;51.538;6.728;2023-08-06T03:38:03;2.37;;;1.30;;
19084;SDS011;9675;51.538;6.728;2023-08-06T03:40:30;1.70;;;1.07;;
19084;SDS011;9675;51.538;6.728;2023-08-06T03:42:57;4.57;;;1.63;;
19084;SDS011;9675;51.538;6.728;2023-08-06T03:45:24;1.97;;;1.50;;
19084;SDS011;9675;51.538;6.728;2023-08-06T03:47:51;1.80;;;1.20;;
19084;SDS011;9675;51.538;6.728;2023-08-06T03:50:18;2.37;;;1.50;;
19084;SDS011;9675;51.538;6.728;2023-08-06T03:52:45;3.73;;;1.67;;
19084;SDS011;9675;51.538;6.728;2023-08-06T03:55:13;2.83;;;1.40;;
19084;SDS011;9675;51.538;6.728;2023-08-06T03:57:40;3.83;;;1.20;;
19084;SDS011;9675;51.538;6.728;2023-08-06T04:00:08;3.40;;;1.60;;
19084;SDS011;9675;51.538;6.728;2023-08-06T04:02:35;3.00;;;1.43;;
19084;SDS011;9675;51.538;6.728;2023-08-06T04:05:02;3.20;;;1.30;;
19084;SDS011;9675;51.538;6.728;2023-08-06T04:07:30;2.87;;;1.70;;
19084;SDS011;9675;51.538;6.728;2023-08-06T04:09:57;2.40;;;1.60;;
19084;SDS011;9675;51.538;6.728;2023-08-06T04:12:27;2.20;;;1.50;;
19084;SDS011;9675;51.538;6.728;2023-08-06T04:14:55;3.00;;;1.53;;
19084;SDS011;9675;51.538;6.728;2023-08-06T04:17:23;2.23;;;1.50;;
19084;SDS011;9675;51.538;6.728;2023-08-06T04:19:51;2.00;;;1.20;;
19084;SDS011;9675;51.538;6.728;2023-08-06T04:22:20;4.60;;;1.50;;
19084;SDS011;9675;51.538;6.728;2023-08-06T04:24:48;3.47;;;1.53;;
19084;SDS011;9675;51.538;6.728;2023-08-06T04:27:15;4.20;;;1.33;;
19084;SDS011;9675;51.538;6.728;2023-08-06T04:29:45;3.87;;;1.50;;
19084;SDS011;9675;51.538;6.728;2023-08-06T04:32:12;2.23;;;1.30;;
19084;SDS011;9675;51.538;6.728;2023-08-06T04:34:39;7.37;;;1.53;;
19084;SDS011;9675;51.538;6.728;2023-08-06T04:37:06;1.77;;;1.20;;
19084;SDS011;9675;51.538;6.728;2023-08-06T04:39:33;2.40;;;1.20;;
19084;SDS011;9675;51.538;6.728;2023-08-06T04:42:00;2.37;;;1.07;;
19084;SDS011;9675;51.538;6.728;2023-08-06T04:44:27;3.67;;;1.70;;
19084;SDS011;9675;51.538;6.728;2023-08-06T04:46:56;2.83;;;2.33;;
19084;SDS011;9675;51.538;6.728;2023-08-06T04:49:23;7.47;;;1.80;;
19084;SDS011;9675;51.538;6.728;2023-08-06T04:51:51;2.40;;;1.33;;
19084;SDS011;9675;51.538;6.728;2023-08-06T04:54:18;2.37;;;1.43;;
19084;SDS011;9675;51.538;6.728;2023-08-06T04:56:45;2.13;;;1.40;;
19084;SDS011;9675;51.538;6.728;2023-08-06T04:59:12;2.67;;;1.60;;
19084;SDS011;9675;51.538;6.728;2023-08-06T05:01:39;1.50;;;1.23;;
19084;SDS011;9675;51.538;6.728;2023-08-06T05:04:07;2.93;;;1.60;;
19084;SDS011;9675;51.538;6.728;2023-08-06T05:06:34;4.10;;;1.63;;
19084;SDS011;9675;51.538;6.728;2023-08-06T05:09:03;3.33;;;1.53;;
19084;SDS011;9675;51.538;6.728;2023-08-06T05:11:31;2.50;;;1.60;;
19084;SDS011;9675;51.538;6.728;2023-08-06T05:13:58;3.70;;;1.63;;
19084;SDS011;9675;51.538;6.728;2023-08-06T05:16:25;2.00;;;1.10;;
19084;SDS011;9675;51.538;6.728;2023-08-06T05:18:52;2.30;;;1.87;;
19084;SDS011;9675;51.538;6.728;2023-08-06T05:21:20;2.40;;;1.50;;
19084;SDS011;9675;51.538;6.728;2023-08-06T05:23:47;2.60;;;1.50;;
19084;SDS011;9675;51.538;6.728;2023-08-06T05:26:14;1.93;;;1.50;;
19084;SDS011;9675;51.538;6.728;2023-08-06T05:28:43;1.50;;;1.30;;
19084;SDS011;9675;51.538;6.728;2023-08-06T05:31:10;2.23;;;1.50;;
19084;SDS011;9675;51.538;6.728;2023-08-06T05:33:38;2.83;;;1.47;;
19084;SDS011;9675;51.538;6.728;2023-08-06T05:36:05;2.27;;;1.33;;
19084;SDS011;9675;51.538;6.728;2023-08-06T05:38:33;2.63;;;1.53;;
19084;SDS011;9675;51.538;6.728;2023-08-06T05:41:00;2.33;;;1.50;;
19084;SDS011;9675;51.538;6.728;2023-08-06T05:43:27;3.17;;;1.60;;
19084;SDS011;9675;51.538;6.728;2023-08-06T05:45:55;8.00;;;2.00;;
19084;SDS011;9675;51.538;6.728;2023-08-06T05:48:22;1.63;;;1.27;;
19084;SDS011;9675;51.538;6.728;2023-08-06T05:50:50;1.47;;;1.20;;
19084;SDS011;9675;51.538;6.728;2023-08-06T05:53:18;6.03;;;1.90;;
19084;SDS011;9675;51.538;6.728;2023-08-06T05:55:47;2.50;;;1.43;;
19084;SDS011;9675;51.538;6.728;2023-08-06T05:58:14;5.93;;;2.00;;
19084;SDS011;9675;51.538;6.728;2023-08-06T06:00:41;5.83;;;1.67;;
19084;SDS011;9675;51.538;6.728;2023-08-06T06:03:08;3.67;;;1.63;;
19084;SDS011;9675;51.538;6.728;2023-08-06T06:05:37;3.47;;;1.87;;
19084;SDS011;9675;51.538;6.728;2023-08-06T06:08:05;3.57;;;1.40;;
19084;SDS011;9675;51.538;6.728;2023-08-06T06:10:32;3.47;;;1.30;;
19084;SDS011;9675;51.538;6.728;2023-08-06T06:13:00;3.93;;;1.30;;
19084;SDS011;9675;51.538;6.728;2023-08-06T06:15:27;2.53;;;1.20;;
19084;SDS011;9675;51.538;6.728;2023-08-06T06:17:54;3.73;;;1.50;;
19084;SDS011;9675;51.538;6.728;2023-08-06T06:20:21;5.07;;;1.43;;
19084;SDS011;9675;51.538;6.728;2023-08-06T06:22:48;2.83;;;1.30;;
19084;SDS011;9675;51.538;6.728;2023-08-06T06:25:15;2.73;;;1.80;;
19084;SDS011;9675;51.538;6.728;2023-08-06T06:27:42;1.97;;;1.40;;
19084;SDS011;9675;51.538;6.728;2023-08-06T06:30:11;2.50;;;1.60;;
19084;SDS011;9675;51.538;6.728;2023-08-06T06:32:39;4.67;;;1.43;;
19084;SDS011;9675;51.538;6.728;2023-08-06T06:35:07;1.17;;;1.07;;
19084;SDS011;9675;51.538;6.728;2023-08-06T06:37:34;2.37;;;1.23;;
19084;SDS011;9675;51.538;6.728;2023-08-06T06:40:01;2.30;;;1.50;;
19084;SDS011;9675;51.538;6.728;2023-08-06T06:42:29;2.90;;;1.60;;
19084;SDS011;9675;51.538;6.728;2023-08-06T06:44:55;2.20;;;1.60;;
19084;SDS011;9675;51.538;6.728;2023-08-06T06:47:24;3.47;;;1.70;;
19084;SDS011;9675;51.538;6.728;2023-08-06T06:49:51;2.87;;;1.40;;
19084;SDS011;9675;51.538;6.728;2023-08-06T06:52:18;5.67;;;1.20;;
19084;SDS011;9675;51.538;6.728;2023-08-06T06:54:45;2.63;;;1.53;;
19084;SDS011;9675;51.538;6.728;2023-08-06T06:57:12;4.40;;;1.97;;
19084;SDS011;9675;51.538;6.728;2023-08-06T06:59:39;3.23;;;1.50;;
19084;SDS011;9675;51.538;6.728;2023-08-06T07:02:06;6.17;;;1.90;;
19084;SDS011;9675;51.538;6.728;2023-08-06T07:04:35;5.40;;;1.70;;
19084;SDS011;9675;51.538;6.728;2023-08-06T07:07:02;4.00;;;1.50;;
19084;SDS011;9675;51.538;6.728;2023-08-06T07:09:29;4.27;;;1.70;;
19084;SDS011;9675;51.538;6.728;2023-08-06T07:11:56;3.73;;;1.47;;
19084;SDS011;9675;51.538;6.728;2023-08-06T07:14:24;4.97;;;1.70;;
19084;SDS011;9675;51.538;6.728;2023-08-06T07:16:52;4.80;;;1.60;;
19084;SDS011;9675;51.538;6.728;2023-08-06T07:19:19;3.73;;;1.50;;
19084;SDS011;9675;51.538;6.728;2023-08-06T07:21:47;3.67;;;2.10;;
19084;SDS011;9675;51.538;6.728;2023-08-06T07:24:14;4.07;;;1.47;;
19084;SDS011;9675;51.538;6.728;2023-08-06T07:26:41;5.63;;;2.17;;
19084;SDS011;9675;51.538;6.728;2023-08-06T07:29:08;1.90;;;1.50;;
19084;SDS011;9675;51.538;6.728;2023-08-06T07:31:35;5.53;;;2.10;;
19084;SDS011;9675;51.538;6.728;2023-08-06T07:34:02;8.50;;;2.10;;
19084;SDS011;9675;51.538;6.728;2023-08-06T07:36:29;4.00;;;1.90;;
19084;SDS011;9675;51.538;6.728;2023-08-06T07:38:58;4.73;;;2.10;;
19084;SDS011;9675;51.538;6.728;2023-08-06T07:41:25;5.77;;;2.17;;
19084;SDS011;9675;51.538;6.728;2023-08-06T07:43:52;3.43;;;1.77;;
19084;SDS011;9675;51.538;6.728;2023-08-06T07:46:19;5.23;;;2.10;;
19084;SDS011;9675;51.538;6.728;2023-08-06T07:48:46;3.30;;;1.80;;
19084;SDS011;9675;51.538;6.728;2023-08-06T07:51:13;5.33;;;2.10;;
19084;SDS011;9675;51.538;6.728;2023-08-06T07:53:40;5.67;;;2.10;;
19084;SDS011;9675;51.538;6.728;2023-08-06T07:56:08;6.33;;;2.20;;
19084;SDS011;9675;51.538;6.728;2023-08-06T07:58:35;3.70;;;2.17;;
19084;SDS011;9675;51.538;6.728;2023-08-06T08:01:02;2.03;;;1.50;;
19084;SDS011;9675;51.538;6.728;2023-08-06T08:03:29;4.23;;;2.07;;
19084;SDS011;9675;51.538;6.728;2023-08-06T08:05:56;3.90;;;1.70;;
19084;SDS011;9675;51.538;6.728;2023-08-06T08:08:24;4.47;;;2.10;;
19084;SDS011;9675;51.538;6.728;2023-08-06T08:10:51;2.67;;;1.50;;
19084;SDS011;9675;51.538;6.728;2023-08-06T08:13:21;3.07;;;1.73;;
19084;SDS011;9675;51.538;6.728;2023-08-06T08:15:49;4.07;;;1.30;;
19084;SDS011;9675;51.538;6.728;2023-08-06T08:18:16;6.20;;;1.60;;
19084;SDS011;9675;51.538;6.728;2023-08-06T08:20:43;3.07;;;1.50;;
19084;SDS011;9675;51.538;6.728;2023-08-06T08:23:10;2.73;;;1.60;;
19084;SDS011;9675;51.538;6.728;2023-08-06T08:25:37;4.27;;;1.57;;
19084;SDS011;9675;51.538;6.728;2023-08-06T08:28:04;5.57;;;3.13;;
19084;SDS011;9675;51.538;6.728;2023-08-06T08:30:32;5.03;;;2.27;;
19084;SDS011;9675;51.538;6.728;2023-08-06T08:32:59;5.50;;;1.90;;
19084;SDS011;9675;51.538;6.728;2023-08-06T08:35:26;3.73;;;1.70;;
19084;SDS011;9675;51.538;6.728;2023-08-06T08:37:53;3.63;;;1.87;;
19084;SDS011;9675;51.538;6.728;2023-08-06T08:40:21;2.53;;;1.30;;
19084;SDS011;9675;51.538;6.728;2023-08-06T08:42:57;1.70;;;1.30;;
19084;SDS011;9675;51.538;6.728;2023-08-06T08:45:26;1.47;;;0.90;;
19084;SDS011;9675;51.538;6.728;2023-08-06T08:47:56;1.37;;;1.10;;
19084;SDS011;9675;51.538;6.728;2023-08-06T08:50:24;2.53;;;1.00;;
19084;SDS011;9675;51.538;6.728;2023-08-06T08:52:51;4.73;;;1.30;;
19084;SDS011;9675;51.538;6.728;2023-08-06T08:55:18;1.57;;;0.70;;
19084;SDS011;9675;51.538;6.728;2023-08-06T08:57:48;1.63;;;1.00;;
19084;SDS011;9675;51.538;6.728;2023-08-06T09:00:15;2.00;;;1.20;;
19084;SDS011;9675;51.538;6.728;2023-08-06T09:02:42;1.43;;;0.97;;
19084;SDS011;9675;51.538;6.728;2023-08-06T09:05:13;1.20;;;0.90;;
19084;SDS011;9675;51.538;6.728;2023-08-06T09:07:43;0.97;;;0.77;;
19084;SDS011;9675;51.538;6.728;2023-08-06T09:10:16;3.13;;;1.07;;
19084;SDS011;9675;51.538;6.728;2023-08-06T09:12:46;1.37;;;0.90;;
19084;SDS011;9675;51.538;6.728;2023-08-06T09:15:16;0.90;;;0.80;;
19084;SDS011;9675;51.538;6.728;2023-08-06T09:17:44;4.70;;;1.03;;
19084;SDS011;9675;51.538;6.728;2023-08-06T09:20:11;1.63;;;0.80;;
19084;SDS011;9675;51.538;6.728;2023-08-06T09:22:41;2.20;;;1.27;;
19084;SDS011;9675;51.538;6.728;2023-08-06T09:25:09;2.07;;;1.80;;
19084;SDS011;9675;51.538;6.728;2023-08-06T09:27:38;5.70;;;2.10;;
19084;SDS011;9675;51.538;6.728;2023-08-06T09:30:06;2.20;;;1.80;;
19084;SDS011;9675;51.538;6.728;2023-08-06T09:32:46;3.70;;;2.33;;
19084;SDS011;9675;51.538;6.728;2023-08-06T09:35:17;3.03;;;2.30;;
19084;SDS011;9675;51.538;6.728;2023-08-06T09:37:45;6.33;;;3.40;;
19084;SDS011;9675;51.538;6.728;2023-08-06T09:40:23;4.73;;;3.30;;
19084;SDS011;9675;51.538;6.728;2023-08-06T09:42:52;4.27;;;3.23;;
19084;SDS011;9675;51.538;6.728;2023-08-06T09:45:20;5.60;;;3.87;;
19084;SDS011;9675;51.538;6.728;2023-08-06T09:47:48;5.33;;;4.23;;
19084;SDS011;9675;51.538;6.728;2023-08-06T09:50:17;5.70;;;4.43;;
19084;SDS011;9675;51.538;6.728;2023-08-06T09:52:46;7.40;;;5.00;;
19084;SDS011;9675;51.538;6.728;2023-08-06T09:55:14;6.50;;;5.10;;
19084;SDS011;9675;51.538;6.728;2023-08-06T09:57:42;5.67;;;4.60;;
19084;SDS011;9675;51.538;6.728;2023-08-06T10:00:10;9.90;;;4.80;;
19084;SDS011;9675;51.538;6.728;2023-08-06T10:02:38;7.80;;;5.00;;
19084;SDS011;9675;51.538;6.728;2023-08-06T10:05:07;6.87;;;5.23;;
19084;SDS011;9675;51.538;6.728;2023-08-06T10:07:36;6.43;;;4.77;;
19084;SDS011;9675;51.538;6.728;2023-08-06T10:10:05;6.47;;;5.20;;
19084;SDS011;9675;51.538;6.728;2023-08-06T10:12:34;7.13;;;5.00;;
19084;SDS011;9675;51.538;6.728;2023-08-06T10:15:08;8.93;;;4.67;;
19084;SDS011;9675;51.538;6.728;2023-08-06T10:17:38;8.03;;;5.50;;
19084;SDS011;9675;51.538;6.728;2023-08-06T10:20:08;7.70;;;5.10;;
19084;SDS011;9675;51.538;6.728;2023-08-06T10:22:38;10.47;;;5.37;;
19084;SDS011;9675;51.538;6.728;2023-08-06T10:25:10;6.30;;;4.80;;
19084;SDS011;9675;51.538;6.728;2023-08-06T10:27:53;7.53;;;4.87;;
19084;SDS011;9675;51.538;6.728;2023-08-06T10:30:21;6.13;;;4.60;;
19084;SDS011;9675;51.538;6.728;2023-08-06T10:32:54;6.57;;;4.90;;
19084;SDS011;9675;51.538;6.728;2023-08-06T10:35:31;6.00;;;4.20;;
19084;SDS011;9675;51.538;6.728;2023-08-06T10:38:07;6.03;;;4.47;;
19084;SDS011;9675;51.538;6.728;2023-08-06T10:40:36;6.40;;;5.13;;
19084;SDS011;9675;51.538;6.728;2023-08-06T10:43:07;6.83;;;4.17;;
19084;SDS011;9675;51.538;6.728;2023-08-06T10:45:35;7.17;;;4.57;;
19084;SDS011;9675;51.538;6.728;2023-08-06T10:48:04;5.47;;;4.27;;
19084;SDS011;9675;51.538;6.728;2023-08-06T10:50:31;5.67;;;4.20;;
19084;SDS011;9675;51.538;6.728;2023-08-06T10:53:03;4.77;;;3.23;;
19084;SDS011;9675;51.538;6.728;2023-08-06T10:55:33;2.83;;;2.20;;
19084;SDS011;9675;51.538;6.728;2023-08-06T10:58:03;2.90;;;2.30;;
19084;SDS011;9675;51.538;6.728;2023-08-06T11:00:30;7.70;;;2.10;;
19084;SDS011;9675;51.538;6.728;2023-08-06T11:02:57;1.53;;;1.10;;
19084;SDS011;9675;51.538;6.728;2023-08-06T11:05:24;2.00;;;0.83;;
19084;SDS011;9675;51.538;6.728;2023-08-06T11:07:52;1.57;;;1.27;;
19084;SDS011;9675;51.538;6.728;2023-08-06T11:10:19;1.37;;;1.17;;
19084;SDS011;9675;51.538;6.728;2023-08-06T11:12:47;1.07;;;0.77;;
19084;SDS011;9675;51.538;6.728;2023-08-06T11:15:14;0.83;;;0.63;;
19084;SDS011;9675;51.538;6.728;2023-08-06T11:17:41;1.90;;;0.40;;
19084;SDS011;9675;51.538;6.728;2023-08-06T11:20:08;0.20;;;0.20;;
19084;SDS011;9675;51.538;6.728;2023-08-06T11:22:36;0.57;;;0.40;;
19084;SDS011;9675;51.538;6.728;2023-08-06T11:25:05;0.30;;;0.30;;
19084;SDS011;9675;51.538;6.728;2023-08-06T11:27:33;0.40;;;0.30;;
19084;SDS011;9675;51.538;6.728;2023-08-06T11:30:02;0.67;;;0.30;;
19084;SDS011;9675;51.538;6.728;2023-08-06T11:32:30;0.57;;;0.47;;
19084;SDS011;9675;51.538;6.728;2023-08-06T11:34:58;1.00;;;0.70;;
19084;SDS011;9675;51.538;6.728;2023-08-06T11:37:25;1.20;;;0.30;;
19084;SDS011;9675;51.538;6.728;2023-08-06T11:39:52;0.80;;;0.67;;
19084;SDS011;9675;51.538;6.728;2023-08-06T11:42:21;0.77;;;0.73;;
19084;SDS011;9675;51.538;6.728;2023-08-06T11:44:50;0.87;;;0.70;;
19084;SDS011;9675;51.538;6.728;2023-08-06T11:47:18;0.50;;;0.50;;
19084;SDS011;9675;51.538;6.728;2023-08-06T11:49:46;0.67;;;0.40;;
19084;SDS011;9675;51.538;6.728;2023-08-06T11:52:15;1.27;;;0.60;;
19084;SDS011;9675;51.538;6.728;2023-08-06T11:54:46;0.20;;;0.20;;
19084;SDS011;9675;51.538;6.728;2023-08-06T11:57:25;0.10;;;0.10;;
19084;SDS011;9675;51.538;6.728;2023-08-06T11:59:53;0.60;;;0.40;;
19084;SDS011;9675;51.538;6.728;2023-08-06T12:02:21;0.37;;;0.20;;
19084;SDS011;9675;51.538;6.728;2023-08-06T12:04:58;0.20;;;0.10;;
19084;SDS011;9675;51.538;6.728;2023-08-06T12:07:31;0.20;;;0.20;;
19084;SDS011;9675;51.538;6.728;2023-08-06T12:10:02;0.50;;;0.10;;
19084;SDS011;9675;51.538;6.728;2023-08-06T12:12:31;0.23;;;0.17;;
19084;SDS011;9675;51.538;6.728;2023-08-06T12:14:58;0.20;;;0.20;;
19084;SDS011;9675;51.538;6.728;2023-08-06T12:17:26;1.60;;;0.33;;
19084;SDS011;9675;51.538;6.728;2023-08-06T12:19:53;0.40;;;0.10;;
19084;SDS011;9675;51.538;6.728;2023-08-06T12:22:20;0.43;;;0.30;;
19084;SDS011;9675;51.538;6.728;2023-08-06T12:24:47;0.20;;;0.07;;
19084;SDS011;9675;51.538;6.728;2023-08-06T12:27:14;0.47;;;0.20;;
19084;SDS011;9675;51.538;6.728;2023-08-06T12:29:42;0.20;;;0.20;;
19084;SDS011;9675;51.538;6.728;2023-08-06T12:32:10;0.30;;;0.30;;
19084;SDS011;9675;51.538;6.728;2023-08-06T12:34:39;0.10;;;0.10;;
19084;SDS011;9675;51.538;6.728;2023-08-06T12:37:08;3.07;;;0.40;;
19084;SDS011;9675;51.538;6.728;2023-08-06T12:39:35;0.20;;;0.20;;
19084;SDS011;9675;51.538;6.728;2023-08-06T12:42:03;0.27;;;0.20;;
19084;SDS011;9675;51.538;6.728;2023-08-06T12:44:32;0.67;;;0.50;;
19084;SDS011;9675;51.538;6.728;2023-08-06T12:46:59;0.00;;;0.00;;
19084;SDS011;9675;51.538;6.728;2023-08-06T12:49:26;0.40;;;0.30;;
19084;SDS011;9675;51.538;6.728;2023-08-06T12:51:55;0.60;;;0.30;;
19084;SDS011;9675;51.538;6.728;2023-08-06T12:54:24;0.70;;;0.23;;
19084;SDS011;9675;51.538;6.728;2023-08-06T12:56:52;0.50;;;0.33;;
19084;SDS011;9675;51.538;6.728;2023-08-06T12:59:19;0.30;;;0.30;;
19084;SDS011;9675;51.538;6.728;2023-08-06T13:01:46;0.30;;;0.30;;
19084;SDS011;9675;51.538;6.728;2023-08-06T13:04:14;0.70;;;0.53;;
19084;SDS011;9675;51.538;6.728;2023-08-06T13:06:41;1.17;;;0.50;;
19084;SDS011;9675;51.538;6.728;2023-08-06T13:09:09;0.10;;;0.10;;
19084;SDS011;9675;51.538;6.728;2023-08-06T13:11:37;0.50;;;0.30;;
19084;SDS011;9675;51.538;6.728;2023-08-06T13:14:05;0.30;;;0.30;;
19084;SDS011;9675;51.538;6.728;2023-08-06T13:16:34;2.47;;;0.70;;
19084;SDS011;9675;51.538;6.728;2023-08-06T13:19:02;1.23;;;0.80;;
19084;SDS011;9675;51.538;6.728;2023-08-06T13:21:34;1.57;;;0.60;;
19084;SDS011;9675;51.538;6.728;2023-08-06T13:24:19;3.03;;;0.73;;
19084;SDS011;9675;51.538;6.728;2023-08-06T13:26:46;2.23;;;0.33;;
19084;SDS011;9675;51.538;6.728;2023-08-06T13:29:13;1.03;;;0.90;;
19084;SDS011;9675;51.538;6.728;2023-08-06T13:31:40;2.20;;;1.30;;
19084;SDS011;9675;51.538;6.728;2023-08-06T13:34:07;1.10;;;0.70;;
19084;SDS011;9675;51.538;6.728;2023-08-06T13:36:34;1.17;;;0.83;;
19084;SDS011;9675;51.538;6.728;2023-08-06T13:39:02;2.37;;;1.57;;
19084;SDS011;9675;51.538;6.728;2023-08-06T13:41:31;2.00;;;1.27;;
19084;SDS011;9675;51.538;6.728;2023-08-06T13:43:58;2.10;;;1.40;;
19084;SDS011;9675;51.538;6.728;2023-08-06T13:46:25;3.30;;;1.47;;
19084;SDS011;9675;51.538;6.728;2023-08-06T13:48:52;0.77;;;0.73;;
19084;SDS011;9675;51.538;6.728;2023-08-06T13:51:19;2.10;;;1.20;;
19084;SDS011;9675;51.538;6.728;2023-08-06T13:53:46;4.87;;;0.80;;
19084;SDS011;9675;51.538;6.728;2023-08-06T13:56:13;1.77;;;0.97;;
19084;SDS011;9675;51.538;6.728;2023-08-06T13:58:44;3.40;;;1.70;;
19084;SDS011;9675;51.538;6.728;2023-08-06T14:01:11;2.03;;;1.10;;
19084;SDS011;9675;51.538;6.728;2023-08-06T14:03:42;1.40;;;1.13;;
19084;SDS011;9675;51.538;6.728;2023-08-06T14:06:09;1.77;;;0.73;;
19084;SDS011;9675;51.538;6.728;2023-08-06T14:08:36;1.33;;;0.70;;
19084;SDS011;9675;51.538;6.728;2023-08-06T14:11:04;2.33;;;1.00;;
19084;SDS011;9675;51.538;6.728;2023-08-06T14:13:32;1.10;;;1.00;;
19084;SDS011;9675;51.538;6.728;2023-08-06T14:16:00;0.60;;;0.33;;
19084;SDS011;9675;51.538;6.728;2023-08-06T14:18:27;2.07;;;0.90;;
19084;SDS011;9675;51.538;6.728;2023-08-06T14:20:54;0.53;;;0.40;;
19084;SDS011;9675;51.538;6.728;2023-08-06T14:23:21;1.80;;;0.73;;
19084;SDS011;9675;51.538;6.728;2023-08-06T14:25:48;0.60;;;0.30;;
19084;SDS011;9675;51.538;6.728;2023-08-06T14:28:15;1.63;;;0.60;;
19084;SDS011;9675;51.538;6.728;2023-08-06T14:30:42;4.90;;;0.50;;
19084;SDS011;9675;51.538;6.728;2023-08-06T14:33:11;0.40;;;0.30;;
19084;SDS011;9675;51.538;6.728;2023-08-06T14:35:38;0.50;;;0.40;;
19084;SDS011;9675;51.538;6.728;2023-08-06T14:38:05;1.23;;;0.73;;
19084;SDS011;9675;51.538;6.728;2023-08-06T14:40:32;1.00;;;0.50;;
19084;SDS011;9675;51.538;6.728;2023-08-06T14:43:02;1.60;;;0.67;;
19084;SDS011;9675;51.538;6.728;2023-08-06T14:45:30;1.03;;;0.83;;
19084;SDS011;9675;51.538;6.728;2023-08-06T14:47:57;1.87;;;0.97;;
19084;SDS011;9675;51.538;6.728;2023-08-06T14:50:25;2.87;;;0.90;;
19084;SDS011;9675;51.538;6.728;2023-08-06T14:52:52;5.43;;;1.50;;
19084;SDS011;9675;51.538;6.728;2023-08-06T14:55:23;2.13;;;1.13;;
19084;SDS011;9675;51.538;6.728;2023-08-06T14:57:50;1.27;;;1.07;;
19084;SDS011;9675;51.538;6.728;2023-08-06T15:00:18;1.93;;;1.13;;
19084;SDS011;9675;51.538;6.728;2023-08-06T15:02:45;2.77;;;1.47;;
19084;SDS011;9675;51.538;6.728;2023-08-06T15:05:12;3.40;;;0.87;;
19084;SDS011;9675;51.538;6.728;2023-08-06T15:07:41;0.57;;;0.40;;